Da Xian, China
Current Conditions -  °F | °C
As of 9:00 PM on Monday 22 Dec 2014 (Local Time) from ZUCK Reporting Station
Clear Clear  
Wind Chill: 45°   Ceiling: Unl
Heat Index: 48°   Visibility: 4mi
Dew Point: 39°   Wind: 7mph
Humidity: 71%   Direction: 290°WNW
Pressure: 30.09"   Gusts: NA
Location:  31.2°N, 107.5°E
Report Text: ZUCK 221300Z 29003MPS 260V330 6000 NSC 09/04 Q1019 NOSIG
Loading
Personal Weather Stations






























Interactive Weather Map New forecast layout! Learn more

10-Day Weather Forecast

Advertisements
Track Severe Weather on mobile